sensor_id;sensor_type;location;lat;lon;timestamp;P1;durP1;ratioP1;P2;durP2;ratioP2
4448;SDS011;2237;51.870;6.160;2023-06-14T00:02:13;5.03;;;2.30;;
4448;SDS011;2237;51.870;6.160;2023-06-14T00:04:40;5.18;;;2.30;;
4448;SDS011;2237;51.870;6.160;2023-06-14T00:07:07;6.47;;;2.03;;
4448;SDS011;2237;51.870;6.160;2023-06-14T00:09:36;4.47;;;2.42;;
4448;SDS011;2237;51.870;6.160;2023-06-14T00:12:03;4.47;;;2.10;;
4448;SDS011;2237;51.870;6.160;2023-06-14T00:14:32;3.83;;;2.40;;
4448;SDS011;2237;51.870;6.160;2023-06-14T00:16:58;6.97;;;2.10;;
4448;SDS011;2237;51.870;6.160;2023-06-14T00:19:25;4.80;;;2.35;;
4448;SDS011;2237;51.870;6.160;2023-06-14T00:21:52;5.82;;;2.15;;
4448;SDS011;2237;51.870;6.160;2023-06-14T00:24:19;4.82;;;2.20;;
4448;SDS011;2237;51.870;6.160;2023-06-14T00:26:48;4.88;;;2.42;;
4448;SDS011;2237;51.870;6.160;2023-06-14T00:29:15;4.35;;;2.10;;
4448;SDS011;2237;51.870;6.160;2023-06-14T00:31:41;2.90;;;2.00;;
4448;SDS011;2237;51.870;6.160;2023-06-14T00:34:08;3.72;;;2.08;;
4448;SDS011;2237;51.870;6.160;2023-06-14T00:36:35;6.75;;;2.00;;
4448;SDS011;2237;51.870;6.160;2023-06-14T00:39:01;9.30;;;2.40;;
4448;SDS011;2237;51.870;6.160;2023-06-14T00:41:29;4.22;;;2.17;;
4448;SDS011;2237;51.870;6.160;2023-06-14T00:43:56;5.72;;;2.50;;
4448;SDS011;2237;51.870;6.160;2023-06-14T00:46:22;9.07;;;2.05;;
4448;SDS011;2237;51.870;6.160;2023-06-14T00:48:49;3.85;;;2.10;;
4448;SDS011;2237;51.870;6.160;2023-06-14T00:51:16;5.25;;;2.10;;
4448;SDS011;2237;51.870;6.160;2023-06-14T00:53:43;4.95;;;1.95;;
4448;SDS011;2237;51.870;6.160;2023-06-14T00:56:13;3.45;;;1.70;;
4448;SDS011;2237;51.870;6.160;2023-06-14T00:58:41;5.88;;;1.92;;
4448;SDS011;2237;51.870;6.160;2023-06-14T01:01:07;4.00;;;1.67;;
4448;SDS011;2237;51.870;6.160;2023-06-14T01:03:34;3.50;;;2.10;;
4448;SDS011;2237;51.870;6.160;2023-06-14T01:06:05;4.07;;;1.70;;
4448;SDS011;2237;51.870;6.160;2023-06-14T01:08:50;3.37;;;1.60;;
4448;SDS011;2237;51.870;6.160;2023-06-14T01:11:50;7.05;;;2.05;;
4448;SDS011;2237;51.870;6.160;2023-06-14T01:14:25;3.10;;;1.80;;
4448;SDS011;2237;51.870;6.160;2023-06-14T01:16:53;5.88;;;1.67;;
4448;SDS011;2237;51.870;6.160;2023-06-14T01:19:21;3.63;;;1.95;;
4448;SDS011;2237;51.870;6.160;2023-06-14T01:21:51;3.22;;;1.90;;
4448;SDS011;2237;51.870;6.160;2023-06-14T01:24:19;5.35;;;1.92;;
4448;SDS011;2237;51.870;6.160;2023-06-14T01:26:58;6.38;;;1.85;;
4448;SDS011;2237;51.870;6.160;2023-06-14T01:29:26;3.78;;;2.00;;
4448;SDS011;2237;51.870;6.160;2023-06-14T01:31:53;2.65;;;1.80;;
4448;SDS011;2237;51.870;6.160;2023-06-14T01:34:20;8.13;;;1.95;;
4448;SDS011;2237;51.870;6.160;2023-06-14T01:36:47;5.30;;;1.90;;
4448;SDS011;2237;51.870;6.160;2023-06-14T01:39:15;7.35;;;1.70;;
4448;SDS011;2237;51.870;6.160;2023-06-14T01:41:43;6.32;;;1.67;;
4448;SDS011;2237;51.870;6.160;2023-06-14T01:44:12;5.30;;;2.17;;
4448;SDS011;2237;51.870;6.160;2023-06-14T01:46:40;4.18;;;1.88;;
4448;SDS011;2237;51.870;6.160;2023-06-14T01:49:07;5.78;;;1.98;;
4448;SDS011;2237;51.870;6.160;2023-06-14T01:51:33;4.00;;;2.03;;
4448;SDS011;2237;51.870;6.160;2023-06-14T01:54:00;3.03;;;1.80;;
4448;SDS011;2237;51.870;6.160;2023-06-14T01:56:26;7.05;;;2.15;;
4448;SDS011;2237;51.870;6.160;2023-06-14T01:58:53;5.63;;;1.95;;
4448;SDS011;2237;51.870;6.160;2023-06-14T02:01:20;4.15;;;1.70;;
4448;SDS011;2237;51.870;6.160;2023-06-14T02:03:47;5.55;;;2.00;;
4448;SDS011;2237;51.870;6.160;2023-06-14T02:06:15;4.20;;;2.03;;
4448;SDS011;2237;51.870;6.160;2023-06-14T02:08:44;4.00;;;1.92;;
4448;SDS011;2237;51.870;6.160;2023-06-14T02:11:11;2.10;;;1.40;;
4448;SDS011;2237;51.870;6.160;2023-06-14T02:13:37;7.32;;;2.10;;
4448;SDS011;2237;51.870;6.160;2023-06-14T02:16:03;3.70;;;1.90;;
4448;SDS011;2237;51.870;6.160;2023-06-14T02:18:30;5.18;;;2.17;;
4448;SDS011;2237;51.870;6.160;2023-06-14T02:20:57;2.88;;;1.88;;
4448;SDS011;2237;51.870;6.160;2023-06-14T02:23:23;4.07;;;2.25;;
4448;SDS011;2237;51.870;6.160;2023-06-14T02:25:49;7.20;;;2.03;;
4448;SDS011;2237;51.870;6.160;2023-06-14T02:28:16;8.65;;;1.75;;
4448;SDS011;2237;51.870;6.160;2023-06-14T02:30:42;4.38;;;2.13;;
4448;SDS011;2237;51.870;6.160;2023-06-14T02:33:09;5.00;;;1.80;;
4448;SDS011;2237;51.870;6.160;2023-06-14T02:35:39;4.05;;;1.65;;
4448;SDS011;2237;51.870;6.160;2023-06-14T02:38:06;3.30;;;1.90;;
4448;SDS011;2237;51.870;6.160;2023-06-14T02:40:33;5.90;;;1.73;;
4448;SDS011;2237;51.870;6.160;2023-06-14T02:42:59;4.78;;;1.90;;
4448;SDS011;2237;51.870;6.160;2023-06-14T02:45:26;6.15;;;2.00;;
4448;SDS011;2237;51.870;6.160;2023-06-14T02:47:53;3.65;;;2.10;;
4448;SDS011;2237;51.870;6.160;2023-06-14T02:50:21;9.40;;;2.10;;
4448;SDS011;2237;51.870;6.160;2023-06-14T02:52:50;3.88;;;2.00;;
4448;SDS011;2237;51.870;6.160;2023-06-14T02:55:16;6.60;;;1.98;;
4448;SDS011;2237;51.870;6.160;2023-06-14T02:57:42;8.65;;;2.08;;
4448;SDS011;2237;51.870;6.160;2023-06-14T03:00:09;4.18;;;2.00;;
4448;SDS011;2237;51.870;6.160;2023-06-14T03:02:40;5.50;;;1.90;;
4448;SDS011;2237;51.870;6.160;2023-06-14T03:05:08;6.28;;;1.92;;
4448;SDS011;2237;51.870;6.160;2023-06-14T03:07:35;3.55;;;2.22;;
4448;SDS011;2237;51.870;6.160;2023-06-14T03:12:35;4.10;;;1.85;;
4448;SDS011;2237;51.870;6.160;2023-06-14T03:15:02;10.00;;;2.47;;
4448;SDS011;2237;51.870;6.160;2023-06-14T03:17:29;3.97;;;1.98;;
4448;SDS011;2237;51.870;6.160;2023-06-14T03:19:59;4.63;;;2.00;;
4448;SDS011;2237;51.870;6.160;2023-06-14T03:22:26;6.38;;;2.40;;
4448;SDS011;2237;51.870;6.160;2023-06-14T03:24:52;4.95;;;2.33;;
4448;SDS011;2237;51.870;6.160;2023-06-14T03:27:20;3.28;;;1.85;;
4448;SDS011;2237;51.870;6.160;2023-06-14T03:29:46;5.32;;;1.80;;
4448;SDS011;2237;51.870;6.160;2023-06-14T03:32:13;2.85;;;1.77;;
4448;SDS011;2237;51.870;6.160;2023-06-14T03:34:39;4.50;;;1.65;;
4448;SDS011;2237;51.870;6.160;2023-06-14T03:37:06;4.07;;;1.80;;
4448;SDS011;2237;51.870;6.160;2023-06-14T03:39:32;7.70;;;1.85;;
4448;SDS011;2237;51.870;6.160;2023-06-14T03:41:59;3.20;;;2.10;;
4448;SDS011;2237;51.870;6.160;2023-06-14T03:44:26;6.50;;;3.05;;
4448;SDS011;2237;51.870;6.160;2023-06-14T03:46:52;6.95;;;1.90;;
4448;SDS011;2237;51.870;6.160;2023-06-14T03:49:19;5.72;;;1.80;;
4448;SDS011;2237;51.870;6.160;2023-06-14T03:51:45;9.18;;;1.88;;
4448;SDS011;2237;51.870;6.160;2023-06-14T03:54:16;5.38;;;2.08;;
4448;SDS011;2237;51.870;6.160;2023-06-14T03:57:03;4.53;;;2.00;;
4448;SDS011;2237;51.870;6.160;2023-06-14T03:59:29;6.28;;;1.85;;
4448;SDS011;2237;51.870;6.160;2023-06-14T04:01:55;6.55;;;1.90;;
4448;SDS011;2237;51.870;6.160;2023-06-14T04:04:22;7.43;;;1.98;;
4448;SDS011;2237;51.870;6.160;2023-06-14T04:06:57;4.25;;;1.77;;
4448;SDS011;2237;51.870;6.160;2023-06-14T04:09:27;6.88;;;2.00;;
4448;SDS011;2237;51.870;6.160;2023-06-14T04:11:53;4.40;;;1.77;;
4448;SDS011;2237;51.870;6.160;2023-06-14T04:14:19;5.72;;;1.70;;
4448;SDS011;2237;51.870;6.160;2023-06-14T04:16:47;5.97;;;1.92;;
4448;SDS011;2237;51.870;6.160;2023-06-14T04:19:14;5.05;;;1.73;;
4448;SDS011;2237;51.870;6.160;2023-06-14T04:21:41;2.72;;;1.67;;
4448;SDS011;2237;51.870;6.160;2023-06-14T04:24:08;6.38;;;1.92;;
4448;SDS011;2237;51.870;6.160;2023-06-14T04:29:13;2.70;;;1.63;;
4448;SDS011;2237;51.870;6.160;2023-06-14T04:31:42;5.03;;;1.77;;
4448;SDS011;2237;51.870;6.160;2023-06-14T04:34:10;3.70;;;1.83;;
4448;SDS011;2237;51.870;6.160;2023-06-14T04:36:42;5.13;;;1.65;;
4448;SDS011;2237;51.870;6.160;2023-06-14T04:39:21;3.95;;;1.70;;
4448;SDS011;2237;51.870;6.160;2023-06-14T04:41:48;3.70;;;2.25;;
4448;SDS011;2237;51.870;6.160;2023-06-14T04:44:19;2.33;;;1.30;;
4448;SDS011;2237;51.870;6.160;2023-06-14T04:46:50;5.55;;;1.98;;
4448;SDS011;2237;51.870;6.160;2023-06-14T04:49:17;2.78;;;1.80;;
4448;SDS011;2237;51.870;6.160;2023-06-14T04:51:44;3.55;;;1.83;;
4448;SDS011;2237;51.870;6.160;2023-06-14T04:54:11;3.83;;;1.88;;
4448;SDS011;2237;51.870;6.160;2023-06-14T04:56:41;7.75;;;2.33;;
4448;SDS011;2237;51.870;6.160;2023-06-14T04:59:14;7.63;;;1.92;;
4448;SDS011;2237;51.870;6.160;2023-06-14T05:01:41;3.60;;;1.50;;
4448;SDS011;2237;51.870;6.160;2023-06-14T05:04:07;7.72;;;2.20;;
4448;SDS011;2237;51.870;6.160;2023-06-14T05:06:34;5.00;;;1.80;;
4448;SDS011;2237;51.870;6.160;2023-06-14T05:09:00;6.13;;;2.28;;
4448;SDS011;2237;51.870;6.160;2023-06-14T05:11:27;4.97;;;1.88;;
4448;SDS011;2237;51.870;6.160;2023-06-14T05:13:53;2.60;;;1.50;;
4448;SDS011;2237;51.870;6.160;2023-06-14T05:16:20;3.97;;;1.75;;
4448;SDS011;2237;51.870;6.160;2023-06-14T05:18:49;3.03;;;1.75;;
4448;SDS011;2237;51.870;6.160;2023-06-14T05:21:17;4.38;;;1.98;;
4448;SDS011;2237;51.870;6.160;2023-06-14T05:23:44;5.18;;;2.03;;
4448;SDS011;2237;51.870;6.160;2023-06-14T05:26:11;6.80;;;1.90;;
4448;SDS011;2237;51.870;6.160;2023-06-14T05:28:38;6.63;;;2.35;;
4448;SDS011;2237;51.870;6.160;2023-06-14T05:31:04;3.95;;;1.60;;
4448;SDS011;2237;51.870;6.160;2023-06-14T05:33:30;5.50;;;1.85;;
4448;SDS011;2237;51.870;6.160;2023-06-14T05:35:57;6.65;;;1.80;;
4448;SDS011;2237;51.870;6.160;2023-06-14T05:38:23;3.05;;;1.67;;
4448;SDS011;2237;51.870;6.160;2023-06-14T05:40:50;4.50;;;1.60;;
4448;SDS011;2237;51.870;6.160;2023-06-14T05:43:16;4.53;;;2.00;;
4448;SDS011;2237;51.870;6.160;2023-06-14T05:45:43;5.85;;;1.85;;
4448;SDS011;2237;51.870;6.160;2023-06-14T05:48:09;7.05;;;2.05;;
4448;SDS011;2237;51.870;6.160;2023-06-14T05:50:36;6.18;;;1.83;;
4448;SDS011;2237;51.870;6.160;2023-06-14T05:53:02;6.93;;;1.80;;
4448;SDS011;2237;51.870;6.160;2023-06-14T05:55:28;2.63;;;1.73;;
4448;SDS011;2237;51.870;6.160;2023-06-14T05:57:55;10.18;;;2.00;;
4448;SDS011;2237;51.870;6.160;2023-06-14T06:00:21;7.57;;;1.80;;
4448;SDS011;2237;51.870;6.160;2023-06-14T06:02:48;3.50;;;1.98;;
4448;SDS011;2237;51.870;6.160;2023-06-14T06:05:15;3.13;;;1.73;;
4448;SDS011;2237;51.870;6.160;2023-06-14T06:07:42;7.32;;;1.80;;
4448;SDS011;2237;51.870;6.160;2023-06-14T06:10:11;3.67;;;1.77;;
4448;SDS011;2237;51.870;6.160;2023-06-14T06:12:37;8.95;;;1.88;;
4448;SDS011;2237;51.870;6.160;2023-06-14T06:15:04;4.38;;;1.77;;
4448;SDS011;2237;51.870;6.160;2023-06-14T06:17:31;3.75;;;1.60;;
4448;SDS011;2237;51.870;6.160;2023-06-14T06:20:17;4.32;;;1.90;;
4448;SDS011;2237;51.870;6.160;2023-06-14T06:22:44;6.65;;;2.13;;
4448;SDS011;2237;51.870;6.160;2023-06-14T06:25:10;4.28;;;2.03;;
4448;SDS011;2237;51.870;6.160;2023-06-14T06:27:36;3.35;;;1.88;;
4448;SDS011;2237;51.870;6.160;2023-06-14T06:30:03;4.28;;;2.13;;
4448;SDS011;2237;51.870;6.160;2023-06-14T06:32:31;4.10;;;2.00;;
4448;SDS011;2237;51.870;6.160;2023-06-14T06:34:58;12.15;;;2.35;;
4448;SDS011;2237;51.870;6.160;2023-06-14T06:37:25;7.18;;;2.55;;
4448;SDS011;2237;51.870;6.160;2023-06-14T06:39:52;5.80;;;1.80;;
4448;SDS011;2237;51.870;6.160;2023-06-14T06:42:18;2.97;;;1.63;;
4448;SDS011;2237;51.870;6.160;2023-06-14T06:44:45;5.00;;;1.65;;
4448;SDS011;2237;51.870;6.160;2023-06-14T06:47:11;4.55;;;1.80;;
4448;SDS011;2237;51.870;6.160;2023-06-14T06:49:37;2.88;;;1.48;;
4448;SDS011;2237;51.870;6.160;2023-06-14T06:52:05;3.10;;;1.33;;
4448;SDS011;2237;51.870;6.160;2023-06-14T06:54:33;5.45;;;1.70;;
4448;SDS011;2237;51.870;6.160;2023-06-14T06:57:01;4.15;;;1.60;;
4448;SDS011;2237;51.870;6.160;2023-06-14T06:59:27;3.80;;;1.40;;
4448;SDS011;2237;51.870;6.160;2023-06-14T07:01:54;2.83;;;1.58;;
4448;SDS011;2237;51.870;6.160;2023-06-14T07:04:21;5.82;;;1.38;;
4448;SDS011;2237;51.870;6.160;2023-06-14T07:06:47;2.88;;;1.30;;
4448;SDS011;2237;51.870;6.160;2023-06-14T07:09:14;4.82;;;2.05;;
4448;SDS011;2237;51.870;6.160;2023-06-14T07:11:45;3.13;;;1.67;;
4448;SDS011;2237;51.870;6.160;2023-06-14T07:14:13;4.97;;;1.60;;
4448;SDS011;2237;51.870;6.160;2023-06-14T07:16:40;5.68;;;1.35;;
4448;SDS011;2237;51.870;6.160;2023-06-14T07:19:07;5.15;;;1.35;;
4448;SDS011;2237;51.870;6.160;2023-06-14T07:21:35;2.22;;;1.33;;
4448;SDS011;2237;51.870;6.160;2023-06-14T07:24:04;2.47;;;1.20;;
4448;SDS011;2237;51.870;6.160;2023-06-14T07:26:34;3.25;;;1.15;;
4448;SDS011;2237;51.870;6.160;2023-06-14T07:29:01;4.32;;;1.50;;
4448;SDS011;2237;51.870;6.160;2023-06-14T07:31:28;2.05;;;1.10;;
4448;SDS011;2237;51.870;6.160;2023-06-14T07:33:55;1.55;;;0.82;;
4448;SDS011;2237;51.870;6.160;2023-06-14T07:36:21;1.45;;;1.00;;
4448;SDS011;2237;51.870;6.160;2023-06-14T07:38:48;1.42;;;0.98;;
4448;SDS011;2237;51.870;6.160;2023-06-14T07:41:15;1.55;;;0.95;;
4448;SDS011;2237;51.870;6.160;2023-06-14T07:43:42;2.42;;;0.95;;
4448;SDS011;2237;51.870;6.160;2023-06-14T07:46:08;2.95;;;1.00;;
4448;SDS011;2237;51.870;6.160;2023-06-14T07:48:35;3.05;;;1.05;;
4448;SDS011;2237;51.870;6.160;2023-06-14T07:51:02;2.63;;;1.38;;
4448;SDS011;2237;51.870;6.160;2023-06-14T07:53:29;2.95;;;1.25;;
4448;SDS011;2237;51.870;6.160;2023-06-14T07:55:57;7.50;;;1.60;;
4448;SDS011;2237;51.870;6.160;2023-06-14T07:58:23;5.32;;;0.93;;
4448;SDS011;2237;51.870;6.160;2023-06-14T08:00:50;2.80;;;1.30;;
4448;SDS011;2237;51.870;6.160;2023-06-14T08:03:17;4.50;;;1.27;;
4448;SDS011;2237;51.870;6.160;2023-06-14T08:05:44;2.55;;;1.15;;
4448;SDS011;2237;51.870;6.160;2023-06-14T08:08:11;2.85;;;1.13;;
4448;SDS011;2237;51.870;6.160;2023-06-14T08:10:37;0.93;;;0.80;;
4448;SDS011;2237;51.870;6.160;2023-06-14T08:13:03;7.53;;;1.65;;
4448;SDS011;2237;51.870;6.160;2023-06-14T08:15:30;2.30;;;1.20;;
4448;SDS011;2237;51.870;6.160;2023-06-14T08:17:57;5.30;;;1.17;;
4448;SDS011;2237;51.870;6.160;2023-06-14T08:20:25;1.85;;;1.10;;
4448;SDS011;2237;51.870;6.160;2023-06-14T08:22:52;2.70;;;1.33;;
4448;SDS011;2237;51.870;6.160;2023-06-14T08:25:21;3.40;;;1.17;;
4448;SDS011;2237;51.870;6.160;2023-06-14T08:27:48;5.25;;;1.15;;
4448;SDS011;2237;51.870;6.160;2023-06-14T08:30:14;6.60;;;1.30;;
4448;SDS011;2237;51.870;6.160;2023-06-14T08:32:41;3.83;;;1.33;;
4448;SDS011;2237;51.870;6.160;2023-06-14T08:35:07;3.70;;;1.13;;
4448;SDS011;2237;51.870;6.160;2023-06-14T08:37:38;5.82;;;1.30;;
4448;SDS011;2237;51.870;6.160;2023-06-14T08:40:18;2.13;;;1.30;;
4448;SDS011;2237;51.870;6.160;2023-06-14T08:42:50;4.28;;;1.20;;
4448;SDS011;2237;51.870;6.160;2023-06-14T08:45:18;2.03;;;1.00;;
4448;SDS011;2237;51.870;6.160;2023-06-14T08:50:24;4.88;;;1.52;;
4448;SDS011;2237;51.870;6.160;2023-06-14T08:53:00;3.03;;;0.80;;
4448;SDS011;2237;51.870;6.160;2023-06-14T08:55:29;3.05;;;1.10;;
4448;SDS011;2237;51.870;6.160;2023-06-14T08:58:02;2.15;;;1.10;;
4448;SDS011;2237;51.870;6.160;2023-06-14T09:00:29;1.50;;;0.95;;
4448;SDS011;2237;51.870;6.160;2023-06-14T09:02:57;4.97;;;1.27;;
4448;SDS011;2237;51.870;6.160;2023-06-14T09:05:25;2.05;;;0.98;;
4448;SDS011;2237;51.870;6.160;2023-06-14T09:07:53;1.52;;;1.10;;
4448;SDS011;2237;51.870;6.160;2023-06-14T09:10:21;5.65;;;1.23;;
4448;SDS011;2237;51.870;6.160;2023-06-14T09:12:49;1.83;;;1.05;;
4448;SDS011;2237;51.870;6.160;2023-06-14T09:15:16;1.98;;;1.00;;
4448;SDS011;2237;51.870;6.160;2023-06-14T09:17:43;1.83;;;1.05;;
4448;SDS011;2237;51.870;6.160;2023-06-14T09:20:09;5.03;;;1.17;;
4448;SDS011;2237;51.870;6.160;2023-06-14T09:22:37;2.35;;;1.10;;
4448;SDS011;2237;51.870;6.160;2023-06-14T09:25:04;3.30;;;1.20;;
4448;SDS011;2237;51.870;6.160;2023-06-14T09:27:32;4.90;;;1.30;;
4448;SDS011;2237;51.870;6.160;2023-06-14T09:30:04;4.28;;;1.20;;
4448;SDS011;2237;51.870;6.160;2023-06-14T09:32:32;2.05;;;0.82;;
4448;SDS011;2237;51.870;6.160;2023-06-14T09:37:30;1.23;;;0.90;;
4448;SDS011;2237;51.870;6.160;2023-06-14T09:39:58;1.35;;;1.00;;
4448;SDS011;2237;51.870;6.160;2023-06-14T09:42:25;3.05;;;0.95;;
4448;SDS011;2237;51.870;6.160;2023-06-14T09:44:54;2.40;;;0.90;;
4448;SDS011;2237;51.870;6.160;2023-06-14T09:47:23;2.40;;;0.77;;
4448;SDS011;2237;51.870;6.160;2023-06-14T09:49:51;2.80;;;1.13;;
4448;SDS011;2237;51.870;6.160;2023-06-14T09:52:21;6.25;;;0.90;;
4448;SDS011;2237;51.870;6.160;2023-06-14T09:54:48;1.27;;;0.93;;
4448;SDS011;2237;51.870;6.160;2023-06-14T09:57:16;2.33;;;0.80;;
4448;SDS011;2237;51.870;6.160;2023-06-14T09:59:48;1.98;;;0.70;;
4448;SDS011;2237;51.870;6.160;2023-06-14T10:04:58;2.13;;;0.95;;
4448;SDS011;2237;51.870;6.160;2023-06-14T10:07:30;6.38;;;1.83;;
4448;SDS011;2237;51.870;6.160;2023-06-14T10:12:27;2.10;;;0.90;;
4448;SDS011;2237;51.870;6.160;2023-06-14T10:14:54;3.38;;;0.95;;
4448;SDS011;2237;51.870;6.160;2023-06-14T10:17:34;2.08;;;1.30;;
4448;SDS011;2237;51.870;6.160;2023-06-14T10:23:02;3.85;;;1.10;;
4448;SDS011;2237;51.870;6.160;2023-06-14T10:25:33;2.95;;;1.02;;
4448;SDS011;2237;51.870;6.160;2023-06-14T10:30:38;3.17;;;0.85;;
4448;SDS011;2237;51.870;6.160;2023-06-14T10:33:05;3.63;;;1.30;;
4448;SDS011;2237;51.870;6.160;2023-06-14T10:35:35;3.13;;;0.80;;
4448;SDS011;2237;51.870;6.160;2023-06-14T10:38:09;1.67;;;0.80;;
4448;SDS011;2237;51.870;6.160;2023-06-14T10:40:37;1.10;;;0.70;;
4448;SDS011;2237;51.870;6.160;2023-06-14T10:43:21;3.50;;;0.90;;
4448;SDS011;2237;51.870;6.160;2023-06-14T10:48:44;2.45;;;1.00;;
4448;SDS011;2237;51.870;6.160;2023-06-14T10:51:17;2.13;;;1.20;;
4448;SDS011;2237;51.870;6.160;2023-06-14T10:53:50;2.83;;;1.08;;
4448;SDS011;2237;51.870;6.160;2023-06-14T10:56:26;3.10;;;1.05;;
4448;SDS011;2237;51.870;6.160;2023-06-14T10:58:57;3.65;;;1.20;;
4448;SDS011;2237;51.870;6.160;2023-06-14T11:04:50;1.77;;;0.80;;
4448;SDS011;2237;51.870;6.160;2023-06-14T11:07:29;3.60;;;1.27;;
4448;SDS011;2237;51.870;6.160;2023-06-14T11:10:25;1.42;;;0.90;;
4448;SDS011;2237;51.870;6.160;2023-06-14T11:12:59;1.55;;;1.05;;
4448;SDS011;2237;51.870;6.160;2023-06-14T11:15:29;2.08;;;1.10;;
4448;SDS011;2237;51.870;6.160;2023-06-14T11:17:57;3.25;;;1.13;;
4448;SDS011;2237;51.870;6.160;2023-06-14T11:20:26;1.77;;;0.90;;
4448;SDS011;2237;51.870;6.160;2023-06-14T11:22:54;2.33;;;0.90;;
4448;SDS011;2237;51.870;6.160;2023-06-14T11:25:20;3.55;;;0.98;;
4448;SDS011;2237;51.870;6.160;2023-06-14T11:27:48;1.40;;;0.88;;
4448;SDS011;2237;51.870;6.160;2023-06-14T11:30:16;2.20;;;1.10;;
4448;SDS011;2237;51.870;6.160;2023-06-14T11:32:49;4.43;;;0.80;;
4448;SDS011;2237;51.870;6.160;2023-06-14T11:35:24;2.42;;;1.13;;
4448;SDS011;2237;51.870;6.160;2023-06-14T11:40:23;3.25;;;1.20;;
4448;SDS011;2237;51.870;6.160;2023-06-14T11:42:58;2.03;;;1.30;;
4448;SDS011;2237;51.870;6.160;2023-06-14T11:45:26;3.20;;;0.80;;
4448;SDS011;2237;51.870;6.160;2023-06-14T11:47:56;1.73;;;0.90;;
4448;SDS011;2237;51.870;6.160;2023-06-14T11:50:24;3.63;;;0.73;;
4448;SDS011;2237;51.870;6.160;2023-06-14T11:52:53;1.42;;;0.73;;
4448;SDS011;2237;51.870;6.160;2023-06-14T11:55:21;1.92;;;0.73;;
4448;SDS011;2237;51.870;6.160;2023-06-14T11:57:48;2.17;;;0.73;;
4448;SDS011;2237;51.870;6.160;2023-06-14T12:00:15;1.35;;;0.82;;
4448;SDS011;2237;51.870;6.160;2023-06-14T12:02:51;2.35;;;1.00;;
4448;SDS011;2237;51.870;6.160;2023-06-14T12:05:23;1.35;;;0.98;;
4448;SDS011;2237;51.870;6.160;2023-06-14T12:07:50;3.10;;;0.90;;
4448;SDS011;2237;51.870;6.160;2023-06-14T12:10:25;3.03;;;0.82;;
4448;SDS011;2237;51.870;6.160;2023-06-14T12:12:56;4.95;;;1.00;;
4448;SDS011;2237;51.870;6.160;2023-06-14T12:17:49;4.03;;;0.63;;
4448;SDS011;2237;51.870;6.160;2023-06-14T12:20:16;3.20;;;1.30;;
4448;SDS011;2237;51.870;6.160;2023-06-14T12:25:27;1.40;;;0.75;;
4448;SDS011;2237;51.870;6.160;2023-06-14T12:28:05;0.60;;;0.50;;
4448;SDS011;2237;51.870;6.160;2023-06-14T12:30:32;1.83;;;0.60;;
4448;SDS011;2237;51.870;6.160;2023-06-14T12:32:59;0.95;;;0.68;;
4448;SDS011;2237;51.870;6.160;2023-06-14T12:35:27;0.57;;;0.57;;
4448;SDS011;2237;51.870;6.160;2023-06-14T12:37:54;2.28;;;0.73;;
4448;SDS011;2237;51.870;6.160;2023-06-14T12:40:21;1.95;;;0.60;;
4448;SDS011;2237;51.870;6.160;2023-06-14T12:42:47;1.52;;;0.52;;
4448;SDS011;2237;51.870;6.160;2023-06-14T12:45:14;0.50;;;0.45;;
4448;SDS011;2237;51.870;6.160;2023-06-14T12:47:41;2.08;;;0.70;;
4448;SDS011;2237;51.870;6.160;2023-06-14T12:50:08;0.93;;;0.60;;
4448;SDS011;2237;51.870;6.160;2023-06-14T12:52:35;2.05;;;0.60;;
4448;SDS011;2237;51.870;6.160;2023-06-14T12:55:05;2.28;;;0.60;;
4448;SDS011;2237;51.870;6.160;2023-06-14T12:57:32;1.13;;;0.70;;
4448;SDS011;2237;51.870;6.160;2023-06-14T13:00:01;2.60;;;0.65;;
4448;SDS011;2237;51.870;6.160;2023-06-14T13:02:27;0.95;;;0.57;;
4448;SDS011;2237;51.870;6.160;2023-06-14T13:04:55;1.15;;;0.60;;
4448;SDS011;2237;51.870;6.160;2023-06-14T13:07:21;3.25;;;0.77;;
4448;SDS011;2237;51.870;6.160;2023-06-14T13:09:48;1.15;;;0.75;;
4448;SDS011;2237;51.870;6.160;2023-06-14T13:12:14;1.33;;;0.70;;
4448;SDS011;2237;51.870;6.160;2023-06-14T13:14:40;4.63;;;0.77;;
4448;SDS011;2237;51.870;6.160;2023-06-14T13:17:08;1.33;;;0.70;;
4448;SDS011;2237;51.870;6.160;2023-06-14T13:19:36;1.67;;;0.70;;
4448;SDS011;2237;51.870;6.160;2023-06-14T13:22:02;0.82;;;0.70;;
4448;SDS011;2237;51.870;6.160;2023-06-14T13:24:29;3.80;;;0.75;;
4448;SDS011;2237;51.870;6.160;2023-06-14T13:26:56;7.10;;;0.80;;
4448;SDS011;2237;51.870;6.160;2023-06-14T13:29:24;3.42;;;0.63;;
4448;SDS011;2237;51.870;6.160;2023-06-14T13:31:51;4.18;;;0.90;;
4448;SDS011;2237;51.870;6.160;2023-06-14T13:34:18;2.15;;;0.60;;
4448;SDS011;2237;51.870;6.160;2023-06-14T13:36:44;5.18;;;0.85;;
4448;SDS011;2237;51.870;6.160;2023-06-14T13:39:11;1.45;;;0.70;;
4448;SDS011;2237;51.870;6.160;2023-06-14T13:41:38;1.58;;;0.60;;
4448;SDS011;2237;51.870;6.160;2023-06-14T13:44:04;0.98;;;0.60;;
4448;SDS011;2237;51.870;6.160;2023-06-14T13:46:31;3.90;;;0.70;;
4448;SDS011;2237;51.870;6.160;2023-06-14T13:48:57;3.63;;;0.73;;
4448;SDS011;2237;51.870;6.160;2023-06-14T13:51:24;2.05;;;0.70;;
4448;SDS011;2237;51.870;6.160;2023-06-14T13:53:52;1.02;;;0.60;;
4448;SDS011;2237;51.870;6.160;2023-06-14T13:56:19;3.40;;;0.85;;
4448;SDS011;2237;51.870;6.160;2023-06-14T13:58:45;2.17;;;0.68;;
4448;SDS011;2237;51.870;6.160;2023-06-14T14:01:12;1.50;;;0.85;;
4448;SDS011;2237;51.870;6.160;2023-06-14T14:03:38;2.03;;;0.70;;
4448;SDS011;2237;51.870;6.160;2023-06-14T14:06:05;1.83;;;0.70;;
4448;SDS011;2237;51.870;6.160;2023-06-14T14:08:33;5.65;;;0.70;;
4448;SDS011;2237;51.870;6.160;2023-06-14T14:10:59;1.85;;;0.73;;
4448;SDS011;2237;51.870;6.160;2023-06-14T14:13:25;1.38;;;0.90;;
4448;SDS011;2237;51.870;6.160;2023-06-14T14:15:52;3.55;;;0.70;;
4448;SDS011;2237;51.870;6.160;2023-06-14T14:18:18;1.85;;;0.93;;
4448;SDS011;2237;51.870;6.160;2023-06-14T14:20:47;1.25;;;0.80;;
4448;SDS011;2237;51.870;6.160;2023-06-14T14:23:14;2.47;;;0.80;;
4448;SDS011;2237;51.870;6.160;2023-06-14T14:25:40;1.50;;;0.80;;
4448;SDS011;2237;51.870;6.160;2023-06-14T14:28:07;2.45;;;0.98;;
4448;SDS011;2237;51.870;6.160;2023-06-14T14:30:33;1.52;;;0.90;;
4448;SDS011;2237;51.870;6.160;2023-06-14T14:33:00;4.47;;;1.10;;
4448;SDS011;2237;51.870;6.160;2023-06-14T14:35:26;2.42;;;1.10;;
4448;SDS011;2237;51.870;6.160;2023-06-14T14:37:56;2.58;;;0.95;;
4448;SDS011;2237;51.870;6.160;2023-06-14T14:40:23;2.35;;;1.00;;
4448;SDS011;2237;51.870;6.160;2023-06-14T14:42:49;1.45;;;1.00;;
4448;SDS011;2237;51.870;6.160;2023-06-14T14:45:16;1.23;;;1.10;;
4448;SDS011;2237;51.870;6.160;2023-06-14T14:47:42;3.05;;;1.10;;
4448;SDS011;2237;51.870;6.160;2023-06-14T14:50:09;3.63;;;1.02;;
4448;SDS011;2237;51.870;6.160;2023-06-14T14:52:36;3.08;;;1.00;;
4448;SDS011;2237;51.870;6.160;2023-06-14T14:55:02;1.40;;;1.10;;
4448;SDS011;2237;51.870;6.160;2023-06-14T14:57:30;5.38;;;1.50;;
4448;SDS011;2237;51.870;6.160;2023-06-14T14:59:57;1.40;;;1.30;;
4448;SDS011;2237;51.870;6.160;2023-06-14T15:02:23;7.15;;;1.40;;
4448;SDS011;2237;51.870;6.160;2023-06-14T15:04:50;2.33;;;1.30;;
4448;SDS011;2237;51.870;6.160;2023-06-14T15:07:16;1.70;;;1.25;;
4448;SDS011;2237;51.870;6.160;2023-06-14T15:09:42;6.18;;;1.30;;
4448;SDS011;2237;51.870;6.160;2023-06-14T15:12:09;1.65;;;1.23;;
4448;SDS011;2237;51.870;6.160;2023-06-14T15:14:37;1.52;;;1.23;;
4448;SDS011;2237;51.870;6.160;2023-06-14T15:17:03;1.48;;;1.20;;
4448;SDS011;2237;51.870;6.160;2023-06-14T15:19:33;1.85;;;1.60;;
4448;SDS011;2237;51.870;6.160;2023-06-14T15:22:04;1.33;;;1.23;;
4448;SDS011;2237;51.870;6.160;2023-06-14T15:24:32;5.03;;;1.35;;
4448;SDS011;2237;51.870;6.160;2023-06-14T15:27:09;2.08;;;1.40;;
4448;SDS011;2237;51.870;6.160;2023-06-14T15:29:37;2.67;;;1.25;;
4448;SDS011;2237;51.870;6.160;2023-06-14T15:32:03;2.90;;;1.27;;
4448;SDS011;2237;51.870;6.160;2023-06-14T15:34:31;1.77;;;1.33;;
4448;SDS011;2237;51.870;6.160;2023-06-14T15:36:58;3.90;;;1.42;;
4448;SDS011;2237;51.870;6.160;2023-06-14T15:39:25;1.90;;;1.27;;
4448;SDS011;2237;51.870;6.160;2023-06-14T15:41:53;2.25;;;1.50;;
4448;SDS011;2237;51.870;6.160;2023-06-14T15:44:19;3.45;;;1.40;;
4448;SDS011;2237;51.870;6.160;2023-06-14T15:46:45;3.78;;;1.30;;
4448;SDS011;2237;51.870;6.160;2023-06-14T15:49:12;4.15;;;1.38;;
4448;SDS011;2237;51.870;6.160;2023-06-14T15:51:39;1.60;;;1.50;;
4448;SDS011;2237;51.870;6.160;2023-06-14T15:54:06;2.65;;;1.30;;
4448;SDS011;2237;51.870;6.160;2023-06-14T15:56:33;2.10;;;1.50;;